Ag Nektarios Aiginas — SX7083 — position and weather

sailwx.info

Track history (hours):
 
Tides and Currents Weather Stations Pressure Air Temp Water Temp Dewpoint Dewpoint Depression Visibility Wind Speed Wind Dir Waves Ship Positions

Ag Nektarios Aiginas

Last reported at 2015-Sep-03 06:33 UTC. Time now 2015-Sep-03 06:50 UTC.
Position N 37°47' E 023°26'.

Length 75 m; draft 2.7 m.

Type: Passenger vessel. MMSI: 237021400.

Date/timePositionNaut miles runAvg speedWind from/ knotsBaromVisibWave heightAir tempDewpointWater temp
2015-Sep-03 06:33N 37°47' E 023°26'1312.7
2015-Sep-03 05:33N 37°56' E 023°37'1 1.3
2015-Sep-03 04:33N 37°57' E 023°39'1 0.0
2015-Sep-02 16:33N 37°56' E 023°38'1312.8
2015-Sep-02 15:33N 37°47' E 023°27'3 2.5
2015-Sep-02 14:33N 37°45' E 023°24'1312.5
2015-Sep-02 13:33N 37°55' E 023°35'2 2.4
2015-Sep-02 12:32N 37°56' E 023°38'1312.9
2015-Sep-02 11:33N 37°47' E 023°27'2 2.3
2015-Sep-02 10:33N 37°46' E 023°25'1312.5
2015-Sep-02 09:33N 37°55' E 023°35'3 3.1
2015-Sep-02 08:33N 37°57' E 023°39'1211.8
2015-Sep-02 07:33N 37°48' E 023°28'2 2.3
2015-Sep-02 06:32N 37°47' E 023°26'1312.7
2015-Sep-02 05:33N 37°56' E 023°37'2 1.6
2015-Sep-02 04:33N 37°57' E 023°39'1 0.0
2015-Sep-01 16:33N 37°56' E 023°38'1312.9
2015-Sep-01 15:33N 37°47' E 023°26'1 1.1
2015-Sep-01 14:33N 37°47' E 023°25'1212.5
2015-Sep-01 13:34N 37°56' E 023°36'2 1.7
2015-Sep-01 12:33N 37°57' E 023°38'1312.9
2015-Sep-01 11:33N 37°47' E 023°27'2 2.4
2015-Sep-01 10:33N 37°45' E 023°25'1312.6
2015-Sep-01 09:33N 37°54' E 023°36'3 3.0
2015-Sep-01 08:33N 37°57' E 023°38'1212.0
2015-Sep-01 07:33N 37°48' E 023°28'3 2.6
2015-Sep-01 06:32N 37°46' E 023°25'1212.9
2015-Sep-01 05:33N 37°55' E 023°36'2 2.1
2015-Sep-01 04:33N 37°57' E 023°39'0 0.0
2015-Aug-31 17:21N 37°57' E 023°39'6 7.5
2015-Aug-31 16:33N 37°52' E 023°33'10 9.1
2015-Aug-31 15:29N 37°45' E 023°25'3 3.2
2015-Aug-31 14:33N 37°47' E 023°27'1312.7
2015-Aug-31 13:33N 37°57' E 023°38'5 4.5
2015-Aug-31 12:33N 37°53' E 023°34'1111.0
2015-Aug-31 11:33N 37°45' E 023°25'2 1.5
2015-Aug-31 10:32N 37°46' E 023°25'1312.9
2015-Aug-31 09:33N 37°55' E 023°36'3 2.7
2015-Aug-31 08:33N 37°53' E 023°34'1111.0
2015-Aug-31 07:33N 37°45' E 023°25'2 1.8
2015-Aug-31 06:33N 37°47' E 023°26'1312.9
2015-Aug-31 05:33N 37°56' E 023°37'2 1.6
2015-Aug-31 04:33N 37°57' E 023°39'0 0.0
2015-Aug-30 20:33N 37°57' E 023°38'1211.6
2015-Aug-30 19:33N 37°48' E 023°28'4 3.8
2015-Aug-30 18:27N 37°45' E 023°25'9 9.6
2015-Aug-30 17:33N 37°51' E 023°33'7 7.1
2015-Aug-30 16:33N 37°57' E 023°38'1110.9
2015-Aug-30 15:33N 37°49' E 023°29'5 4.9
2015-Aug-30 14:33N 37°45' E 023°25'4 3.6
2015-Aug-30 13:33N 37°48' E 023°28'1212.1
2015-Aug-30 12:33N 37°57' E 023°39'7 6.9
2015-Aug-30 11:33N 37°52' E 023°33'9 8.8
2015-Aug-30 10:33N 37°45' E 023°26'3 3.3
2015-Aug-30 09:33N 37°48' E 023°27'1212.5
2015-Aug-30 08:33N 37°57' E 023°38'5 4.8
2015-Aug-30 07:33N 37°53' E 023°34'1110.8
2015-Aug-30 06:33N 37°45' E 023°25'5 4.7
2015-Aug-30 05:33N 37°49' E 023°29'1111.1
2015-Aug-30 04:33N 37°57' E 023°39'0 0.0
2015-Aug-29 17:15N 37°57' E 023°39'5 7.6
2015-Aug-29 16:33N 37°53' E 023°34'1110.5
2015-Aug-29 15:33N 37°45' E 023°25'3 3.0
2015-Aug-29 14:33N 37°47' E 023°27'1312.9
2015-Aug-29 13:33N 37°57' E 023°38'2 2.2
2015-Aug-29 12:34N 37°56' E 023°36'1212.3
2015-Aug-29 11:33N 37°46' E 023°25'1 1.5
2015-Aug-29 10:33N 37°47' E 023°27'1312.9
2015-Aug-29 09:33N 37°57' E 023°38'0 0.3
2015-Aug-29 08:33N 37°56' E 023°38'1212.1
2015-Aug-29 07:33N 37°48' E 023°27'2 2.1
2015-Aug-29 06:33N 37°46' E 023°25'1312.8
2015-Aug-29 05:33N 37°55' E 023°37'2 1.9
2015-Aug-29 04:33N 37°57' E 023°39'2 0.2
2015-Aug-28 19:34N 37°56' E 023°37'1312.6
2015-Aug-28 18:33N 37°46' E 023°25'3 3.3
2015-Aug-28 17:33N 37°48' E 023°29'1111.3
2015-Aug-28 16:33N 37°57' E 023°38'6 5.7
2015-Aug-28 15:33N 37°53' E 023°33'1010.0
2015-Aug-28 14:33N 37°45' E 023°25'3 3.4
2015-Aug-28 13:33N 37°48' E 023°27'1212.5
2015-Aug-28 12:33N 37°57' E 023°38'0 0.0
2015-Aug-28 11:33N 37°57' E 023°39'0 0.0
2015-Aug-28 09:24N 37°57' E 023°39'4 5.1
2015-Aug-28 08:34N 37°53' E 023°35'1211.6
2015-Aug-28 07:33N 37°45' E 023°25'2 2.0
2015-Aug-28 06:33N 37°47' E 023°26'1313.0
2015-Aug-28 05:33N 37°56' E 023°37'1 1.3
2015-Aug-28 04:34N 37°57' E 023°39'2 0.2
2015-Aug-27 16:33N 37°55' E 023°36'1212.5
2015-Aug-27 15:33N 37°46' E 023°25'1 1.1
2015-Aug-27 14:33N 37°45' E 023°25'1312.9
2015-Aug-27 13:33N 37°55' E 023°36'1 0.8
2015-Aug-27 12:33N 37°55' E 023°36'1212.3
2015-Aug-27 11:33N 37°47' E 023°26'1 1.2
2015-Aug-27 10:33N 37°46' E 023°25'1312.7
2015-Aug-27 09:34N 37°55' E 023°36'2 2.2
2015-Aug-27 08:34N 37°56' E 023°38'1212.3
2015-Aug-27 07:33N 37°47' E 023°27'1 1.2
2015-Aug-27 06:33N 37°47' E 023°26'1312.8
2015-Aug-27 05:33N 37°56' E 023°37'1 1.4
2015-Aug-27 04:33N 37°57' E 023°39'0 0.0
2015-Aug-26 17:05N 37°57' E 023°39'2 4.0
2015-Aug-26 16:33N 37°56' E 023°36'1212.4
2015-Aug-26 15:33N 37°46' E 023°26'0 0.4
2015-Aug-26 14:32N 37°46' E 023°25'1212.7
2015-Aug-26 13:33N 37°55' E 023°36'1 0.5
2015-Aug-26 12:34N 37°56' E 023°36'1212.3
2015-Aug-26 11:34N 37°47' E 023°26'2 1.8
2015-Aug-26 10:33N 37°45' E 023°25'1312.7
2015-Aug-26 09:33N 37°54' E 023°36'3 3.1
2015-Aug-26 08:34N 37°57' E 023°38'1212.1
2015-Aug-26 07:33N 37°48' E 023°28'3 2.6
2015-Aug-26 06:33N 37°46' E 023°25'1312.9
2015-Aug-26 05:33N 37°55' E 023°36'2 2.1
2015-Aug-26 04:33N 37°57' E 023°39'0 0.0
2015-Aug-25 17:20N 37°57' E 023°39'6 7.8
2015-Aug-25 16:33N 37°52' E 023°33'10 9.7
2015-Aug-25 15:33N 37°45' E 023°25'4 4.5
2015-Aug-25 14:33N 37°48' E 023°29'1111.3
2015-Aug-25 13:33N 37°57' E 023°39'3 2.5
2015-Aug-25 12:33N 37°55' E 023°36'1212.3
2015-Aug-25 11:33N 37°46' E 023°25'1 0.7
2015-Aug-25 10:33N 37°46' E 023°25'1312.8
2015-Aug-25 09:33N 37°55' E 023°36'1 0.9
2015-Aug-25 08:33N 37°56' E 023°37'1212.4
2015-Aug-25 07:33N 37°47' E 023°26'0 0.3
2015-Aug-25 06:33N 37°46' E 023°25'1312.6
2015-Aug-25 05:33N 37°56' E 023°37'2 1.9
2015-Aug-25 04:33N 37°57' E 023°39'0 0.0
2015-Aug-24 17:21N 37°57' E 023°39'7 9.0
2015-Aug-24 16:33N 37°51' E 023°32'9 8.6
2015-Aug-24 15:33N 37°45' E 023°26'3 3.1
2015-Aug-24 14:33N 37°48' E 023°27'1312.6
2015-Aug-24 13:33N 37°57' E 023°38'3 3.3
2015-Aug-24 12:33N 37°54' E 023°35'1212.3
2015-Aug-24 11:33N 37°45' E 023°25'1 1.0
2015-Aug-24 10:33N 37°46' E 023°25'1313.0
2015-Aug-24 09:33N 37°55' E 023°37'0 0.5
2015-Aug-24 08:33N 37°56' E 023°36'1212.2
2015-Aug-24 07:33N 37°47' E 023°26'  
Track history (hours):
 
Tides and Currents Weather Stations Pressure Air Temp Water Temp Dewpoint Dewpoint Depression Visibility Wind Speed Wind Dir Waves Ship Positions

Ag Nektarios Aiginas

Last reported at 2015-Sep-03 06:33 UTC. Time now 2015-Sep-03 06:50 UTC.
Position N 37°47' E 023°26'.

Length 75 m; draft 2.7 m.

Type: Passenger vessel. MMSI: 237021400.

Date/timePositionNaut miles runAvg speedWind from/ knotsBaromVisibWave heightAir tempDewpointWater temp
2015-Sep-03 06:33N 37°47' E 023°26'1312.7
2015-Sep-03 05:33N 37°56' E 023°37'1 1.3
2015-Sep-03 04:33N 37°57' E 023°39'1 0.0
2015-Sep-02 16:33N 37°56' E 023°38'1312.8
2015-Sep-02 15:33N 37°47' E 023°27'3 2.5
2015-Sep-02 14:33N 37°45' E 023°24'1312.5
2015-Sep-02 13:33N 37°55' E 023°35'2 2.4
2015-Sep-02 12:32N 37°56' E 023°38'1312.9
2015-Sep-02 11:33N 37°47' E 023°27'2 2.3
2015-Sep-02 10:33N 37°46' E 023°25'1312.5
2015-Sep-02 09:33N 37°55' E 023°35'3 3.1
2015-Sep-02 08:33N 37°57' E 023°39'1211.8
2015-Sep-02 07:33N 37°48' E 023°28'2 2.3
2015-Sep-02 06:32N 37°47' E 023°26'1312.7
2015-Sep-02 05:33N 37°56' E 023°37'2 1.6
2015-Sep-02 04:33N 37°57' E 023°39'1 0.0
2015-Sep-01 16:33N 37°56' E 023°38'1312.9
2015-Sep-01 15:33N 37°47' E 023°26'1 1.1
2015-Sep-01 14:33N 37°47' E 023°25'1212.5
2015-Sep-01 13:34N 37°56' E 023°36'2 1.7
2015-Sep-01 12:33N 37°57' E 023°38'1312.9
2015-Sep-01 11:33N 37°47' E 023°27'2 2.4
2015-Sep-01 10:33N 37°45' E 023°25'1312.6
2015-Sep-01 09:33N 37°54' E 023°36'3 3.0
2015-Sep-01 08:33N 37°57' E 023°38'1212.0
2015-Sep-01 07:33N 37°48' E 023°28'3 2.6
2015-Sep-01 06:32N 37°46' E 023°25'1212.9
2015-Sep-01 05:33N 37°55' E 023°36'2 2.1
2015-Sep-01 04:33N 37°57' E 023°39'0 0.0
2015-Aug-31 17:21N 37°57' E 023°39'6 7.5
2015-Aug-31 16:33N 37°52' E 023°33'10 9.1
2015-Aug-31 15:29N 37°45' E 023°25'3 3.2
2015-Aug-31 14:33N 37°47' E 023°27'1312.7
2015-Aug-31 13:33N 37°57' E 023°38'5 4.5
2015-Aug-31 12:33N 37°53' E 023°34'1111.0
2015-Aug-31 11:33N 37°45' E 023°25'2 1.5
2015-Aug-31 10:32N 37°46' E 023°25'1312.9
2015-Aug-31 09:33N 37°55' E 023°36'3 2.7
2015-Aug-31 08:33N 37°53' E 023°34'1111.0
2015-Aug-31 07:33N 37°45' E 023°25'2 1.8
2015-Aug-31 06:33N 37°47' E 023°26'1312.9
2015-Aug-31 05:33N 37°56' E 023°37'2 1.6
2015-Aug-31 04:33N 37°57' E 023°39'0 0.0
2015-Aug-30 20:33N 37°57' E 023°38'1211.6
2015-Aug-30 19:33N 37°48' E 023°28'4 3.8
2015-Aug-30 18:27N 37°45' E 023°25'9 9.6
2015-Aug-30 17:33N 37°51' E 023°33'7 7.1
2015-Aug-30 16:33N 37°57' E 023°38'1110.9
2015-Aug-30 15:33N 37°49' E 023°29'5 4.9
2015-Aug-30 14:33N 37°45' E 023°25'4 3.6
2015-Aug-30 13:33N 37°48' E 023°28'1212.1
2015-Aug-30 12:33N 37°57' E 023°39'7 6.9
2015-Aug-30 11:33N 37°52' E 023°33'9 8.8
2015-Aug-30 10:33N 37°45' E 023°26'3 3.3
2015-Aug-30 09:33N 37°48' E 023°27'1212.5
2015-Aug-30 08:33N 37°57' E 023°38'5 4.8
2015-Aug-30 07:33N 37°53' E 023°34'1110.8
2015-Aug-30 06:33N 37°45' E 023°25'5 4.7
2015-Aug-30 05:33N 37°49' E 023°29'1111.1
2015-Aug-30 04:33N 37°57' E 023°39'0 0.0
2015-Aug-29 17:15N 37°57' E 023°39'5 7.6
2015-Aug-29 16:33N 37°53' E 023°34'1110.5
2015-Aug-29 15:33N 37°45' E 023°25'3 3.0
2015-Aug-29 14:33N 37°47' E 023°27'1312.9
2015-Aug-29 13:33N 37°57' E 023°38'2 2.2
2015-Aug-29 12:34N 37°56' E 023°36'1212.3
2015-Aug-29 11:33N 37°46' E 023°25'1 1.5
2015-Aug-29 10:33N 37°47' E 023°27'1312.9
2015-Aug-29 09:33N 37°57' E 023°38'0 0.3
2015-Aug-29 08:33N 37°56' E 023°38'1212.1
2015-Aug-29 07:33N 37°48' E 023°27'2 2.1
2015-Aug-29 06:33N 37°46' E 023°25'1312.8
2015-Aug-29 05:33N 37°55' E 023°37'2 1.9
2015-Aug-29 04:33N 37°57' E 023°39'2 0.2
2015-Aug-28 19:34N 37°56' E 023°37'1312.6
2015-Aug-28 18:33N 37°46' E 023°25'3 3.3
2015-Aug-28 17:33N 37°48' E 023°29'1111.3
2015-Aug-28 16:33N 37°57' E 023°38'6 5.7
2015-Aug-28 15:33N 37°53' E 023°33'1010.0
2015-Aug-28 14:33N 37°45' E 023°25'3 3.4
2015-Aug-28 13:33N 37°48' E 023°27'1212.5
2015-Aug-28 12:33N 37°57' E 023°38'0 0.0
2015-Aug-28 11:33N 37°57' E 023°39'0 0.0
2015-Aug-28 09:24N 37°57' E 023°39'4 5.1
2015-Aug-28 08:34N 37°53' E 023°35'1211.6
2015-Aug-28 07:33N 37°45' E 023°25'2 2.0
2015-Aug-28 06:33N 37°47' E 023°26'1313.0
2015-Aug-28 05:33N 37°56' E 023°37'1 1.3
2015-Aug-28 04:34N 37°57' E 023°39'2 0.2
2015-Aug-27 16:33N 37°55' E 023°36'1212.5
2015-Aug-27 15:33N 37°46' E 023°25'1 1.1
2015-Aug-27 14:33N 37°45' E 023°25'1312.9
2015-Aug-27 13:33N 37°55' E 023°36'1 0.8
2015-Aug-27 12:33N 37°55' E 023°36'1212.3
2015-Aug-27 11:33N 37°47' E 023°26'1 1.2
2015-Aug-27 10:33N 37°46' E 023°25'1312.7
2015-Aug-27 09:34N 37°55' E 023°36'2 2.2
2015-Aug-27 08:34N 37°56' E 023°38'1212.3
2015-Aug-27 07:33N 37°47' E 023°27'1 1.2
2015-Aug-27 06:33N 37°47' E 023°26'1312.8
2015-Aug-27 05:33N 37°56' E 023°37'1 1.4
2015-Aug-27 04:33N 37°57' E 023°39'0 0.0
2015-Aug-26 17:05N 37°57' E 023°39'2 4.0
2015-Aug-26 16:33N 37°56' E 023°36'1212.4
2015-Aug-26 15:33N 37°46' E 023°26'0 0.4
2015-Aug-26 14:32N 37°46' E 023°25'1212.7
2015-Aug-26 13:33N 37°55' E 023°36'1 0.5
2015-Aug-26 12:34N 37°56' E 023°36'1212.3
2015-Aug-26 11:34N 37°47' E 023°26'2 1.8
2015-Aug-26 10:33N 37°45' E 023°25'1312.7
2015-Aug-26 09:33N 37°54' E 023°36'3 3.1
2015-Aug-26 08:34N 37°57' E 023°38'1212.1
2015-Aug-26 07:33N 37°48' E 023°28'3 2.6
2015-Aug-26 06:33N 37°46' E 023°25'1312.9
2015-Aug-26 05:33N 37°55' E 023°36'2 2.1
2015-Aug-26 04:33N 37°57' E 023°39'0 0.0
2015-Aug-25 17:20N 37°57' E 023°39'6 7.8
2015-Aug-25 16:33N 37°52' E 023°33'10 9.7
2015-Aug-25 15:33N 37°45' E 023°25'4 4.5
2015-Aug-25 14:33N 37°48' E 023°29'1111.3
2015-Aug-25 13:33N 37°57' E 023°39'3 2.5
2015-Aug-25 12:33N 37°55' E 023°36'1212.3
2015-Aug-25 11:33N 37°46' E 023°25'1 0.7
2015-Aug-25 10:33N 37°46' E 023°25'1312.8
2015-Aug-25 09:33N 37°55' E 023°36'1 0.9
2015-Aug-25 08:33N 37°56' E 023°37'1212.4
2015-Aug-25 07:33N 37°47' E 023°26'0 0.3
2015-Aug-25 06:33N 37°46' E 023°25'1312.6
2015-Aug-25 05:33N 37°56' E 023°37'2 1.9
2015-Aug-25 04:33N 37°57' E 023°39'0 0.0
2015-Aug-24 17:21N 37°57' E 023°39'7 9.0
2015-Aug-24 16:33N 37°51' E 023°32'9 8.6
2015-Aug-24 15:33N 37°45' E 023°26'3 3.1
2015-Aug-24 14:33N 37°48' E 023°27'1312.6
2015-Aug-24 13:33N 37°57' E 023°38'3 3.3
2015-Aug-24 12:33N 37°54' E 023°35'1212.3
2015-Aug-24 11:33N 37°45' E 023°25'1 1.0
2015-Aug-24 10:33N 37°46' E 023°25'1313.0
2015-Aug-24 09:33N 37°55' E 023°37'0 0.5
2015-Aug-24 08:33N 37°56' E 023°36'1212.2
2015-Aug-24 07:33N 37°47' E 023°26'  

Dump ship's entire track history